Time;durP1;ratioP1;P1;durP2;ratioP2;P2;SDS_P1;SDS_P2;PMS_P1;PMS_P2;Temp;Humidity;BMP_temperature;BMP_pressure;BME280_temperature;BME280_humidity;BME280_pressure;Samples;Min_cycle;Max_cycle;Signal;HPM_P1;HPM_P2
2021/10/16 00:01:13;;;;;;;2.47;1.30;;;;;;;;;;5047450;28;20469;-81
2021/10/16 00:03:41;;;;;;;6.77;1.90;;;;;;;;;;5047209;28;20477;-81
2021/10/16 00:06:08;;;;;;;11.93;1.63;;;;;;;;;;5046866;28;20731;-82
2021/10/16 00:08:36;;;;;;;9.77;2.23;;;;;;;;;;5050128;28;20975;-80
2021/10/16 00:11:04;;;;;;;5.30;1.43;;;;;;;;;;5052095;28;20498;-81
2021/10/16 00:13:32;;;;;;;7.57;1.80;;;;;;;;;;5049960;28;20446;-81
2021/10/16 00:16:04;;;;;;;6.60;1.67;;;;;;;;;;5049490;28;20524;-81
2021/10/16 00:18:32;;;;;;;7.67;1.60;;;;;;;;;;5048882;28;20470;-81
2021/10/16 00:21:00;;;;;;;11.63;1.93;;;;;;;;;;5048612;28;20461;-80
2021/10/16 00:23:27;;;;;;;10.40;2.20;;;;;;;;;;5048158;28;20478;-81
2021/10/16 00:25:55;;;;;;;5.87;1.83;;;;;;;;;;5053546;28;20454;-81
2021/10/16 00:28:23;;;;;;;5.13;1.40;;;;;;;;;;5088691;28;20473;-81
2021/10/16 00:30:50;;;;;;;5.10;1.37;;;;;;;;;;5087857;28;20491;-79
2021/10/16 00:33:20;;;;;;;4.63;1.30;;;;;;;;;;5088899;28;20499;-80
2021/10/16 00:35:47;;;;;;;7.30;1.40;;;;;;;;;;5087638;28;20958;-80
2021/10/16 00:38:15;;;;;;;7.90;2.20;;;;;;;;;;5088105;28;20498;-79
2021/10/16 00:40:43;;;;;;;4.50;1.10;;;;;;;;;;5090435;28;20519;-81
2021/10/16 00:43:11;;;;;;;2.90;0.97;;;;;;;;;;5088302;28;20663;-80
2021/10/16 00:45:39;;;;;;;3.73;1.17;;;;;;;;;;5088348;28;20486;-81
2021/10/16 00:48:06;;;;;;;7.97;2.30;;;;;;;;;;5087722;28;20473;-80
2021/10/16 00:50:36;;;;;;;5.47;1.83;;;;;;;;;;5087550;28;20524;-79
2021/10/16 00:53:04;;;;;;;15.07;1.80;;;;;;;;;;5087667;28;20476;-81
2021/10/16 00:55:31;;;;;;;6.00;1.83;;;;;;;;;;5087519;28;20518;-81
2021/10/16 00:58:00;;;;;;;7.10;1.53;;;;;;;;;;5078002;28;20444;-82
2021/10/16 01:00:28;;;;;;;7.50;2.37;;;;;;;;;;5088409;28;20456;-81
2021/10/16 01:02:56;;;;;;;6.10;1.03;;;;;;;;;;5089735;28;20539;-78
2021/10/16 01:05:24;;;;;;;4.30;1.00;;;;;;;;;;5089687;28;20463;-80
2021/10/16 01:07:56;;;;;;;13.37;2.43;;;;;;;;;;5088081;28;20449;-81
2021/10/16 01:10:25;;;;;;;12.13;1.73;;;;;;;;;;5086159;28;20477;-81
2021/10/16 01:12:53;;;;;;;2.83;1.27;;;;;;;;;;5088859;28;20475;-80
2021/10/16 01:15:36;;;;;;;5.03;0.93;;;;;;;;;;5087339;28;20518;-80
2021/10/16 01:18:06;;;;;;;7.73;1.37;;;;;;;;;;5069037;28;20442;-79
2021/10/16 01:20:36;;;;;;;2.63;1.00;;;;;;;;;;5075375;28;20512;-80
2021/10/16 01:23:05;;;;;;;7.63;1.30;;;;;;;;;;5085994;28;20448;-81
2021/10/16 01:25:33;;;;;;;7.17;1.13;;;;;;;;;;5088373;28;20472;-80
2021/10/16 01:28:03;;;;;;;6.60;1.27;;;;;;;;;;5088176;28;20456;-80
2021/10/16 01:30:30;;;;;;;7.07;1.90;;;;;;;;;;5086654;28;20521;-80
2021/10/16 01:32:59;;;;;;;3.20;1.67;;;;;;;;;;5087318;28;20449;-80
2021/10/16 01:35:27;;;;;;;9.60;1.67;;;;;;;;;;5087187;28;20820;-80
2021/10/16 01:37:55;;;;;;;7.97;1.50;;;;;;;;;;5087527;28;20894;-80
2021/10/16 01:40:32;;;;;;;8.67;1.23;;;;;;;;;;5087940;28;20464;-80
2021/10/16 01:43:00;;;;;;;10.47;2.30;;;;;;;;;;5086129;28;20543;-81
2021/10/16 01:45:27;;;;;;;3.30;1.10;;;;;;;;;;5087832;28;20543;-81
2021/10/16 01:47:56;;;;;;;2.47;2.00;;;;;;;;;;5087645;28;20513;-81
2021/10/16 01:50:25;;;;;;;7.40;1.90;;;;;;;;;;5085651;28;20541;-80
2021/10/16 01:52:53;;;;;;;4.27;1.50;;;;;;;;;;5087346;28;20508;-80
2021/10/16 01:55:21;;;;;;;4.50;1.10;;;;;;;;;;5086031;28;20583;-81
2021/10/16 01:57:52;;;;;;;6.20;1.57;;;;;;;;;;5087302;28;20864;-81
2021/10/16 02:00:20;;;;;;;8.17;1.63;;;;;;;;;;5087268;28;20533;-81
2021/10/16 02:02:48;;;;;;;3.50;1.23;;;;;;;;;;5087160;28;20444;-80
2021/10/16 02:05:16;;;;;;;5.70;1.97;;;;;;;;;;5087542;28;20487;-79
2021/10/16 02:07:47;;;;;;;12.77;1.80;;;;;;;;;;5085258;28;20455;-80
2021/10/16 02:10:20;;;;;;;1.43;0.90;;;;;;;;;;5084884;28;20456;-79
2021/10/16 02:12:50;;;;;;;6.60;1.47;;;;;;;;;;5085580;28;20449;-81
2021/10/16 02:15:18;;;;;;;5.83;1.50;;;;;;;;;;5085423;28;20484;-81
2021/10/16 02:17:46;;;;;;;6.80;2.50;;;;;;;;;;5087971;28;20454;-81
2021/10/16 02:20:13;;;;;;;8.70;1.57;;;;;;;;;;5087585;28;20456;-79
2021/10/16 02:22:41;;;;;;;5.33;1.53;;;;;;;;;;5082631;28;20463;-79
2021/10/16 02:25:09;;;;;;;4.60;1.27;;;;;;;;;;5087876;28;20452;-81
2021/10/16 02:27:37;;;;;;;3.23;1.17;;;;;;;;;;5086217;28;20531;-81
2021/10/16 02:30:08;;;;;;;9.73;1.13;;;;;;;;;;5087281;28;20464;-80
2021/10/16 02:32:36;;;;;;;3.43;1.43;;;;;;;;;;5087465;28;20458;-81
2021/10/16 02:35:05;;;;;;;6.50;1.50;;;;;;;;;;5083881;28;20555;-81
2021/10/16 02:37:32;;;;;;;4.97;1.37;;;;;;;;;;5086218;28;20465;-81
2021/10/16 02:40:00;;;;;;;7.43;1.00;;;;;;;;;;5085050;28;20523;-80
2021/10/16 02:42:28;;;;;;;10.13;1.80;;;;;;;;;;5085572;28;20505;-80
2021/10/16 02:44:57;;;;;;;6.00;1.70;;;;;;;;;;5090840;28;20456;-81
2021/10/16 02:47:30;;;;;;;3.70;1.30;;;;;;;;;;5090488;28;20511;-80
2021/10/16 02:49:59;;;;;;;15.03;2.03;;;;;;;;;;5086464;28;20476;-80
2021/10/16 02:52:27;;;;;;;4.70;1.40;;;;;;;;;;5069490;28;20445;-80
2021/10/16 02:54:55;;;;;;;7.53;1.40;;;;;;;;;;5068450;28;20553;-80
2021/10/16 02:57:23;;;;;;;9.33;2.13;;;;;;;;;;5071181;28;20508;-81
2021/10/16 02:59:50;;;;;;;6.60;1.67;;;;;;;;;;5068253;28;20457;-78
2021/10/16 03:02:18;;;;;;;4.80;1.30;;;;;;;;;;5067698;28;20489;-79
2021/10/16 03:04:47;;;;;;;3.57;1.40;;;;;;;;;;5068999;28;20459;-80
2021/10/16 03:07:16;;;;;;;10.30;2.23;;;;;;;;;;5067658;28;20505;-81
2021/10/16 03:09:43;;;;;;;3.60;1.40;;;;;;;;;;5068225;28;20865;-80
2021/10/16 03:12:11;;;;;;;3.40;1.30;;;;;;;;;;5068854;28;20532;-81
2021/10/16 03:14:39;;;;;;;4.57;1.33;;;;;;;;;;5069248;28;20445;-81
2021/10/16 03:17:06;;;;;;;4.07;1.37;;;;;;;;;;5068221;28;20919;-81
2021/10/16 03:19:34;;;;;;;3.70;2.00;;;;;;;;;;5070686;28;20449;-81
2021/10/16 03:22:03;;;;;;;4.17;1.37;;;;;;;;;;5069433;28;20469;-81
2021/10/16 03:24:31;;;;;;;5.70;1.17;;;;;;;;;;5069860;28;20492;-81
2021/10/16 03:26:59;;;;;;;3.23;1.20;;;;;;;;;;5068611;28;20465;-81
2021/10/16 03:29:26;;;;;;;3.50;1.77;;;;;;;;;;5069660;28;20500;-80
2021/10/16 03:31:54;;;;;;;3.00;1.10;;;;;;;;;;5068535;28;20454;-81
2021/10/16 03:34:22;;;;;;;6.83;1.40;;;;;;;;;;5068002;28;20481;-81
2021/10/16 03:36:49;;;;;;;4.60;1.23;;;;;;;;;;5069092;28;20515;-81
2021/10/16 03:39:18;;;;;;;2.57;1.60;;;;;;;;;;5069425;28;20511;-80
2021/10/16 03:41:46;;;;;;;3.10;1.00;;;;;;;;;;5068173;28;20453;-81
2021/10/16 03:44:16;;;;;;;5.33;1.00;;;;;;;;;;5068695;28;20450;-81
2021/10/16 03:46:44;;;;;;;4.37;1.40;;;;;;;;;;5067336;28;20492;-81
2021/10/16 03:49:12;;;;;;;6.60;1.27;;;;;;;;;;5069006;28;20450;-81
2021/10/16 03:51:40;;;;;;;3.30;1.13;;;;;;;;;;5068849;28;20525;-81
2021/10/16 03:54:07;;;;;;;3.53;1.40;;;;;;;;;;5068202;28;20477;-81
2021/10/16 03:56:36;;;;;;;4.10;1.27;;;;;;;;;;5067827;28;20583;-82
2021/10/16 03:59:04;;;;;;;6.00;1.47;;;;;;;;;;5068103;28;20469;-81
2021/10/16 04:01:32;;;;;;;4.20;2.13;;;;;;;;;;5067510;28;20880;-81
2021/10/16 04:03:59;;;;;;;4.13;2.97;;;;;;;;;;5066579;28;20799;-80
2021/10/16 04:06:27;;;;;;;2.83;1.23;;;;;;;;;;5067617;28;21096;-80
2021/10/16 04:08:55;;;;;;;7.67;1.50;;;;;;;;;;5067496;28;20485;-80
2021/10/16 04:11:22;;;;;;;5.27;1.37;;;;;;;;;;5066596;28;20495;-81
2021/10/16 04:13:52;;;;;;;10.67;2.00;;;;;;;;;;5067687;28;20454;-80
2021/10/16 04:16:19;;;;;;;5.07;1.53;;;;;;;;;;5067807;28;20552;-80
2021/10/16 04:18:47;;;;;;;9.30;2.00;;;;;;;;;;5067447;28;20543;-81
2021/10/16 04:21:15;;;;;;;5.13;1.87;;;;;;;;;;5066970;28;20543;-80
2021/10/16 04:23:42;;;;;;;4.37;1.80;;;;;;;;;;5066521;28;20445;-81
2021/10/16 04:26:11;;;;;;;4.50;1.33;;;;;;;;;;5066504;28;20916;-79
2021/10/16 04:28:39;;;;;;;4.43;2.23;;;;;;;;;;5066961;28;20453;-79
2021/10/16 04:31:08;;;;;;;5.67;2.67;;;;;;;;;;5066927;28;20467;-81
2021/10/16 04:33:36;;;;;;;15.93;3.33;;;;;;;;;;5067115;28;20963;-79
2021/10/16 04:36:04;;;;;;;8.60;1.70;;;;;;;;;;5066927;28;20974;-79
2021/10/16 04:38:33;;;;;;;11.20;2.47;;;;;;;;;;5069769;28;20445;-80
2021/10/16 04:41:01;;;;;;;10.60;3.13;;;;;;;;;;5067525;28;20471;-80
2021/10/16 04:43:35;;;;;;;3.87;2.30;;;;;;;;;;5067627;28;20501;-80
2021/10/16 04:46:03;;;;;;;6.77;2.80;;;;;;;;;;5065945;28;20516;-80
2021/10/16 04:48:32;;;;;;;2.67;2.20;;;;;;;;;;5067330;28;20729;-80
2021/10/16 04:51:01;;;;;;;3.67;2.53;;;;;;;;;;5068034;28;20449;-80
2021/10/16 04:53:29;;;;;;;4.20;1.90;;;;;;;;;;5065208;28;20790;-79
2021/10/16 04:55:56;;;;;;;10.70;2.40;;;;;;;;;;5067352;28;20533;-82
2021/10/16 04:58:25;;;;;;;8.50;2.37;;;;;;;;;;5070087;28;20504;-79
2021/10/16 05:00:53;;;;;;;3.10;1.87;;;;;;;;;;5070491;28;20461;-81
2021/10/16 05:03:21;;;;;;;4.27;2.17;;;;;;;;;;5068074;28;20467;-80
2021/10/16 05:05:50;;;;;;;12.07;2.30;;;;;;;;;;5068092;28;20457;-80
2021/10/16 05:08:17;;;;;;;3.87;2.37;;;;;;;;;;5067319;28;20509;-81
2021/10/16 05:10:45;;;;;;;7.33;2.67;;;;;;;;;;5068588;28;20474;-82
2021/10/16 05:13:13;;;;;;;7.73;3.20;;;;;;;;;;5069466;28;20462;-82
2021/10/16 05:15:40;;;;;;;9.07;2.27;;;;;;;;;;5067797;28;20461;-82
2021/10/16 05:18:08;;;;;;;5.73;2.47;;;;;;;;;;5067199;28;20492;-81
2021/10/16 05:20:36;;;;;;;8.97;2.07;;;;;;;;;;5065512;28;20468;-79
2021/10/16 05:23:05;;;;;;;6.37;3.10;;;;;;;;;;5066227;28;20445;-80
2021/10/16 05:25:33;;;;;;;4.90;2.80;;;;;;;;;;5067515;28;20445;-81
2021/10/16 05:28:01;;;;;;;8.60;3.40;;;;;;;;;;5066120;28;20865;-81
2021/10/16 05:30:28;;;;;;;7.17;2.73;;;;;;;;;;5065938;28;20524;-80
2021/10/16 05:32:56;;;;;;;5.87;2.90;;;;;;;;;;5067086;28;20522;-81
2021/10/16 05:35:24;;;;;;;5.50;2.63;;;;;;;;;;5066285;28;20511;-81
2021/10/16 05:37:57;;;;;;;6.40;2.87;;;;;;;;;;5067480;28;20488;-80
2021/10/16 05:40:26;;;;;;;5.37;2.60;;;;;;;;;;5067682;28;20496;-81
2021/10/16 05:42:54;;;;;;;5.47;3.00;;;;;;;;;;5066782;28;20456;-80
2021/10/16 05:45:22;;;;;;;6.30;3.30;;;;;;;;;;5067403;28;20465;-81
2021/10/16 05:47:49;;;;;;;6.90;3.20;;;;;;;;;;5067546;28;20457;-80
2021/10/16 05:50:17;;;;;;;9.40;2.60;;;;;;;;;;5066577;28;20496;-80
2021/10/16 05:52:45;;;;;;;5.97;2.20;;;;;;;;;;5067147;28;20812;-81
2021/10/16 05:55:13;;;;;;;9.60;4.10;;;;;;;;;;5066031;28;20468;-82
2021/10/16 05:57:42;;;;;;;6.30;2.07;;;;;;;;;;5066025;28;20493;-82
2021/10/16 06:00:10;;;;;;;6.27;2.87;;;;;;;;;;5065387;28;20539;-81
2021/10/16 06:02:40;;;;;;;8.00;2.83;;;;;;;;;;5066365;28;20469;-81
2021/10/16 06:05:07;;;;;;;5.00;2.70;;;;;;;;;;5068062;28;20850;-81
2021/10/16 06:07:35;;;;;;;4.90;2.47;;;;;;;;;;5065789;28;20496;-82
2021/10/16 06:10:04;;;;;;;3.37;1.97;;;;;;;;;;5068528;28;20461;-82
2021/10/16 06:12:31;;;;;;;12.97;3.07;;;;;;;;;;5068043;28;20449;-81
2021/10/16 06:15:00;;;;;;;6.80;3.57;;;;;;;;;;5066266;28;20437;-81
2021/10/16 06:17:28;;;;;;;5.63;2.90;;;;;;;;;;5066733;28;21027;-80
2021/10/16 06:19:56;;;;;;;8.90;2.63;;;;;;;;;;5070626;28;20828;-82
2021/10/16 06:22:24;;;;;;;4.73;2.47;;;;;;;;;;5070947;28;20607;-81
2021/10/16 06:24:52;;;;;;;9.33;2.27;;;;;;;;;;5072112;28;20453;-81
2021/10/16 06:27:20;;;;;;;3.73;2.50;;;;;;;;;;5072906;28;20457;-81
2021/10/16 06:29:48;;;;;;;4.53;2.60;;;;;;;;;;5070037;28;20540;-81
2021/10/16 06:32:18;;;;;;;4.23;2.40;;;;;;;;;;5072565;28;20505;-81
2021/10/16 06:34:45;;;;;;;7.47;2.70;;;;;;;;;;5069401;28;20503;-81
2021/10/16 06:37:13;;;;;;;9.50;2.70;;;;;;;;;;5071005;28;20481;-81
2021/10/16 06:39:41;;;;;;;7.13;2.63;;;;;;;;;;5070402;28;20464;-80
2021/10/16 06:42:08;;;;;;;7.97;3.73;;;;;;;;;;5068870;28;20496;-81
2021/10/16 06:44:36;;;;;;;8.40;2.70;;;;;;;;;;5072261;28;20497;-81
2021/10/16 06:47:04;;;;;;;8.43;3.07;;;;;;;;;;5068115;28;20508;-81
2021/10/16 06:49:33;;;;;;;17.00;5.17;;;;;;;;;;5069450;28;20513;-81
2021/10/16 06:52:01;;;;;;;8.80;3.07;;;;;;;;;;5069116;28;20449;-81
2021/10/16 06:54:28;;;;;;;4.40;2.67;;;;;;;;;;5069776;28;20487;-80
2021/10/16 06:56:56;;;;;;;5.10;2.73;;;;;;;;;;5072391;28;20508;-80
2021/10/16 06:59:24;;;;;;;9.10;4.77;;;;;;;;;;5069438;28;20544;-81
2021/10/16 07:01:51;;;;;;;7.20;3.50;;;;;;;;;;5056339;28;20545;-81
2021/10/16 07:04:19;;;;;;;8.90;3.37;;;;;;;;;;5049495;28;20443;-81
2021/10/16 07:06:49;;;;;;;7.87;3.13;;;;;;;;;;5046602;28;20878;-81
2021/10/16 07:09:19;;;;;;;6.83;2.83;;;;;;;;;;5065787;28;20537;-81
2021/10/16 07:11:47;;;;;;;5.10;2.63;;;;;;;;;;5068931;28;20445;-81
2021/10/16 07:14:16;;;;;;;5.57;2.70;;;;;;;;;;5068967;28;20445;-80
2021/10/16 07:16:44;;;;;;;6.40;2.53;;;;;;;;;;5065849;28;20488;-79
2021/10/16 07:19:11;;;;;;;6.87;2.50;;;;;;;;;;5071110;28;20456;-82
2021/10/16 07:21:42;;;;;;;8.30;2.53;;;;;;;;;;5089018;28;20520;-79
2021/10/16 07:24:15;;;;;;;5.23;2.20;;;;;;;;;;5091027;28;20614;-81
2021/10/16 07:26:43;;;;;;;11.07;2.67;;;;;;;;;;5092862;28;20444;-80
2021/10/16 07:29:11;;;;;;;9.73;3.40;;;;;;;;;;5071947;28;20468;-81
2021/10/16 07:31:38;;;;;;;8.23;2.73;;;;;;;;;;5069685;28;20473;-81
2021/10/16 07:34:06;;;;;;;5.37;2.70;;;;;;;;;;5086069;28;20496;-81
2021/10/16 07:36:39;;;;;;;6.23;2.73;;;;;;;;;;5085966;28;20444;-80
2021/10/16 07:39:10;;;;;;;5.00;2.50;;;;;;;;;;5088511;28;20461;-81
2021/10/16 07:41:40;;;;;;;7.03;2.70;;;;;;;;;;5068129;28;20463;-81
2021/10/16 07:44:08;;;;;;;5.40;2.70;;;;;;;;;;5066919;28;20526;-81
2021/10/16 07:46:35;;;;;;;5.10;2.57;;;;;;;;;;5071249;28;20453;-79
2021/10/16 07:49:04;;;;;;;6.17;2.40;;;;;;;;;;5065747;28;20454;-81
2021/10/16 07:51:32;;;;;;;5.80;3.00;;;;;;;;;;5060416;28;20457;-81
2021/10/16 07:54:01;;;;;;;36.07;12.97;;;;;;;;;;5072063;28;20457;-80
2021/10/16 07:56:29;;;;;;;8.23;3.37;;;;;;;;;;5069480;28;20887;-80
2021/10/16 07:59:08;;;;;;;8.40;3.53;;;;;;;;;;5068360;28;20500;-80
2021/10/16 08:01:36;;;;;;;8.67;4.33;;;;;;;;;;5074164;28;20496;-79
2021/10/16 08:04:04;;;;;;;8.33;2.90;;;;;;;;;;5070268;28;20725;-81
2021/10/16 08:06:31;;;;;;;8.93;3.00;;;;;;;;;;5074504;28;20457;-81
2021/10/16 08:09:00;;;;;;;5.10;3.17;;;;;;;;;;5068054;28;20445;-79
2021/10/16 08:11:28;;;;;;;7.80;3.80;;;;;;;;;;5069574;28;20468;-79
2021/10/16 08:13:56;;;;;;;6.03;2.70;;;;;;;;;;5054145;28;20465;-80
2021/10/16 08:16:25;;;;;;;8.20;2.50;;;;;;;;;;5069630;28;20502;-80
2021/10/16 08:18:53;;;;;;;4.07;2.23;;;;;;;;;;5051521;28;20473;-81
2021/10/16 08:21:22;;;;;;;4.40;2.80;;;;;;;;;;5067522;28;20581;-79
2021/10/16 08:23:50;;;;;;;11.50;2.80;;;;;;;;;;5067491;28;20499;-81
2021/10/16 08:26:18;;;;;;;6.50;2.20;;;;;;;;;;5067192;28;20500;-79
2021/10/16 08:28:48;;;;;;;8.03;3.13;;;;;;;;;;5064702;28;20465;-80
2021/10/16 08:31:16;;;;;;;6.87;2.10;;;;;;;;;;5070285;28;20491;-80
2021/10/16 08:33:46;;;;;;;6.20;2.40;;;;;;;;;;5065307;28;20472;-80
2021/10/16 08:36:14;;;;;;;4.10;1.80;;;;;;;;;;5087434;28;20459;-79
2021/10/16 08:38:42;;;;;;;5.50;2.80;;;;;;;;;;5079535;28;20948;-79
2021/10/16 08:41:11;;;;;;;9.43;2.17;;;;;;;;;;5068939;28;20464;-79
2021/10/16 08:43:39;;;;;;;4.80;1.87;;;;;;;;;;5077741;28;20820;-80
2021/10/16 08:46:07;;;;;;;7.77;3.73;;;;;;;;;;5052021;28;20505;-80
2021/10/16 08:48:59;;;;;;;5.33;2.30;;;;;;;;;;5063840;28;20471;-80
2021/10/16 08:51:29;;;;;;;3.97;1.80;;;;;;;;;;5071059;28;20755;-80
2021/10/16 08:53:58;;;;;;;9.83;4.17;;;;;;;;;;5087471;28;20853;-79
2021/10/16 08:56:26;;;;;;;5.67;2.20;;;;;;;;;;5085348;28;20748;-80
2021/10/16 08:58:55;;;;;;;7.60;1.70;;;;;;;;;;5069358;28;20513;-80
2021/10/16 09:01:23;;;;;;;3.90;2.17;;;;;;;;;;5061580;28;20459;-80
2021/10/16 09:03:51;;;;;;;4.90;1.87;;;;;;;;;;5067639;28;20441;-81
2021/10/16 09:06:24;;;;;;;2.67;1.53;;;;;;;;;;5059100;28;20484;-82
2021/10/16 09:08:59;;;;;;;4.57;2.07;;;;;;;;;;5066648;28;20493;-82
2021/10/16 09:11:28;;;;;;;3.60;2.03;;;;;;;;;;5067407;28;20528;-80
2021/10/16 09:14:01;;;;;;;4.23;2.17;;;;;;;;;;5088135;28;20456;-81
2021/10/16 09:16:32;;;;;;;4.40;2.40;;;;;;;;;;5074131;28;20520;-80
2021/10/16 09:19:14;;;;;;;4.77;1.63;;;;;;;;;;5065528;28;20462;-80
2021/10/16 09:21:43;;;;;;;6.80;2.50;;;;;;;;;;5062610;28;20457;-82
2021/10/16 09:24:15;;;;;;;4.60;1.90;;;;;;;;;;5064970;28;20505;-79
2021/10/16 09:26:44;;;;;;;5.00;2.67;;;;;;;;;;5067841;28;20464;-81
2021/10/16 09:29:12;;;;;;;7.00;1.80;;;;;;;;;;5066064;28;20543;-81
2021/10/16 09:31:52;;;;;;;3.40;2.00;;;;;;;;;;5066322;28;20491;-80
2021/10/16 09:34:28;;;;;;;4.40;1.77;;;;;;;;;;5063915;28;20473;-82
2021/10/16 09:37:02;;;;;;;3.80;2.30;;;;;;;;;;5054539;28;21920;-81
2021/10/16 09:39:32;;;;;;;8.00;2.03;;;;;;;;;;5048877;28;20492;-79
2021/10/16 09:42:00;;;;;;;16.03;2.43;;;;;;;;;;5064700;28;20530;-80
2021/10/16 09:44:34;;;;;;;4.53;2.70;;;;;;;;;;5063427;28;20960;-78
2021/10/16 09:47:03;;;;;;;5.30;2.33;;;;;;;;;;5083969;28;20879;-80
2021/10/16 09:49:32;;;;;;;9.80;3.20;;;;;;;;;;5057384;28;20464;-81
2021/10/16 09:52:01;;;;;;;5.80;2.30;;;;;;;;;;5064202;28;20487;-81
2021/10/16 09:54:38;;;;;;;5.93;1.87;;;;;;;;;;5057100;28;20525;-80
2021/10/16 09:57:07;;;;;;;5.30;1.53;;;;;;;;;;5073444;28;20492;-81
2021/10/16 09:59:41;;;;;;;6.67;2.33;;;;;;;;;;5069220;28;20488;-80
2021/10/16 10:02:10;;;;;;;11.43;4.50;;;;;;;;;;5076920;28;20894;-82
2021/10/16 10:04:40;;;;;;;7.43;2.50;;;;;;;;;;5078375;28;20517;-81
2021/10/16 10:07:15;;;;;;;5.87;2.90;;;;;;;;;;5069506;28;20476;-84
2021/10/16 10:09:45;;;;;;;3.20;1.60;;;;;;;;;;5077497;28;20486;-82
2021/10/16 10:12:14;;;;;;;5.20;2.47;;;;;;;;;;5066662;28;20457;-80
2021/10/16 10:14:43;;;;;;;4.80;1.47;;;;;;;;;;5068876;28;20500;-81
2021/10/16 10:17:11;;;;;;;4.40;1.57;;;;;;;;;;5064009;28;20458;-81
2021/10/16 10:19:40;;;;;;;4.33;2.00;;;;;;;;;;5084784;28;20552;-81
2021/10/16 10:22:12;;;;;;;10.03;2.33;;;;;;;;;;5076199;28;20456;-81
2021/10/16 10:24:40;;;;;;;3.00;2.10;;;;;;;;;;5066247;28;20454;-81
2021/10/16 10:27:11;;;;;;;8.33;1.83;;;;;;;;;;5076120;28;20452;-81
2021/10/16 10:29:39;;;;;;;4.20;2.27;;;;;;;;;;5078786;28;20450;-82
2021/10/16 10:32:08;;;;;;;6.23;2.00;;;;;;;;;;5078184;28;20460;-80
2021/10/16 10:34:39;;;;;;;7.53;2.60;;;;;;;;;;5077565;28;20453;-82
2021/10/16 10:37:08;;;;;;;6.13;1.70;;;;;;;;;;5062149;28;20460;-81
2021/10/16 10:39:57;;;;;;;8.93;3.20;;;;;;;;;;5051658;28;20481;-82
2021/10/16 10:42:46;;;;;;;5.70;2.27;;;;;;;;;;5065861;28;21011;-82
2021/10/16 10:45:44;;;;;;;4.50;2.83;;;;;;;;;;5056047;28;20483;-82
2021/10/16 10:48:24;;;;;;;12.93;2.23;;;;;;;;;;5082452;28;20487;-79
2021/10/16 10:51:00;;;;;;;6.30;4.40;;;;;;;;;;5070224;28;20764;-80
2021/10/16 10:53:40;;;;;;;4.63;1.90;;;;;;;;;;5065517;28;20489;-81
2021/10/16 10:56:19;;;;;;;6.30;2.73;;;;;;;;;;5071163;28;20470;-83
2021/10/16 10:59:02;;;;;;;3.83;1.93;;;;;;;;;;5076127;28;20492;-81
2021/10/16 11:02:03;;;;;;;5.27;1.90;;;;;;;;;;5054925;28;20917;-80
2021/10/16 11:04:49;;;;;;;3.90;2.40;;;;;;;;;;5067149;28;20452;-83
2021/10/16 11:07:19;;;;;;;4.40;2.60;;;;;;;;;;5074221;28;20450;-82
2021/10/16 11:09:53;;;;;;;5.97;2.50;;;;;;;;;;5075421;28;20432;-82
2021/10/16 11:12:30;;;;;;;4.10;2.50;;;;;;;;;;5064138;28;20480;-79
2021/10/16 11:15:10;;;;;;;6.20;2.60;;;;;;;;;;5061018;28;20449;-80
2021/10/16 11:17:46;;;;;;;8.83;3.70;;;;;;;;;;5061273;28;20511;-81
2021/10/16 11:20:20;;;;;;;15.03;4.67;;;;;;;;;;5078703;28;20440;-81
2021/10/16 11:22:51;;;;;;;6.80;3.00;;;;;;;;;;5075439;28;20484;-80
2021/10/16 11:25:20;;;;;;;4.20;1.97;;;;;;;;;;5070563;28;20477;-81
2021/10/16 11:28:01;;;;;;;2.60;1.77;;;;;;;;;;5087488;28;20776;-82
2021/10/16 11:30:29;;;;;;;8.57;2.00;;;;;;;;;;5068764;28;20456;-80
2021/10/16 11:33:01;;;;;;;2.90;2.10;;;;;;;;;;5064788;28;20793;-81
2021/10/16 11:35:30;;;;;;;5.23;1.90;;;;;;;;;;5076004;28;20465;-80
2021/10/16 11:38:01;;;;;;;3.47;2.20;;;;;;;;;;5071415;28;20464;-78
2021/10/16 11:40:30;;;;;;;10.53;6.70;;;;;;;;;;5078940;28;20476;-80
2021/10/16 11:42:59;;;;;;;10.37;3.17;;;;;;;;;;5067037;28;20476;-82
2021/10/16 11:45:27;;;;;;;5.63;3.33;;;;;;;;;;5076326;28;20449;-82
2021/10/16 11:47:56;;;;;;;3.77;2.30;;;;;;;;;;5065011;28;20543;-82
2021/10/16 11:50:25;;;;;;;5.20;1.40;;;;;;;;;;5064071;28;20460;-82
2021/10/16 11:53:06;;;;;;;8.10;1.87;;;;;;;;;;5063551;28;20590;-81
2021/10/16 11:55:36;;;;;;;5.93;2.40;;;;;;;;;;5067652;28;20446;-80
2021/10/16 11:58:04;;;;;;;4.30;2.10;;;;;;;;;;5058191;28;20526;-80
2021/10/16 12:00:33;;;;;;;3.90;1.83;;;;;;;;;;5069120;28;20445;-83
2021/10/16 12:03:15;;;;;;;7.83;2.50;;;;;;;;;;5072644;28;20479;-83
2021/10/16 12:05:43;;;;;;;3.50;2.07;;;;;;;;;;5073321;28;20455;-83
2021/10/16 12:08:19;;;;;;;10.70;2.50;;;;;;;;;;5073278;28;20508;-81
2021/10/16 12:10:57;;;;;;;7.40;3.10;;;;;;;;;;5081629;28;20459;-82
2021/10/16 12:13:31;;;;;;;9.77;3.20;;;;;;;;;;5065355;28;20564;-83
2021/10/16 12:15:59;;;;;;;10.40;3.33;;;;;;;;;;5063411;28;20441;-79
2021/10/16 12:18:28;;;;;;;7.93;4.67;;;;;;;;;;5066510;28;20503;-82
2021/10/16 12:20:56;;;;;;;8.03;3.47;;;;;;;;;;5068147;28;20480;-80
2021/10/16 12:23:43;;;;;;;10.83;3.20;;;;;;;;;;5067982;28;20481;-80
2021/10/16 12:26:21;;;;;;;11.20;5.97;;;;;;;;;;5063526;28;20476;-81
2021/10/16 12:28:49;;;;;;;8.17;4.23;;;;;;;;;;5065258;28;20765;-79
2021/10/16 12:31:22;;;;;;;28.37;18.43;;;;;;;;;;5082430;28;20449;-80
2021/10/16 12:34:00;;;;;;;13.30;6.57;;;;;;;;;;5069859;28;20453;-79
2021/10/16 12:36:52;;;;;;;9.03;3.03;;;;;;;;;;5067176;28;20446;-79
2021/10/16 12:39:30;;;;;;;7.60;4.10;;;;;;;;;;5068990;28;20552;-82
2021/10/16 12:42:09;;;;;;;4.70;1.70;;;;;;;;;;5083423;28;20476;-79
2021/10/16 12:44:37;;;;;;;12.57;2.53;;;;;;;;;;5072739;28;20461;-82
2021/10/16 12:47:06;;;;;;;6.87;2.60;;;;;;;;;;5068736;28;20509;-82
2021/10/16 12:49:35;;;;;;;8.67;4.73;;;;;;;;;;5078928;28;20502;-79
2021/10/16 12:52:04;;;;;;;7.10;2.30;;;;;;;;;;5058238;28;20459;-82
2021/10/16 12:54:33;;;;;;;4.23;2.70;;;;;;;;;;5062102;28;20465;-82
2021/10/16 12:57:06;;;;;;;5.50;2.20;;;;;;;;;;5050938;28;20458;-80
2021/10/16 12:59:34;;;;;;;5.33;2.27;;;;;;;;;;5065562;28;20481;-80
2021/10/16 13:02:02;;;;;;;6.90;3.30;;;;;;;;;;5074005;28;20888;-82
2021/10/16 13:04:31;;;;;;;10.40;3.60;;;;;;;;;;5081474;28;20457;-79
2021/10/16 13:07:02;;;;;;;4.33;1.50;;;;;;;;;;5063122;28;20456;-81
2021/10/16 13:09:37;;;;;;;12.27;2.57;;;;;;;;;;5060818;28;20451;-81
2021/10/16 13:12:07;;;;;;;3.40;1.50;;;;;;;;;;5047518;28;20450;-81
2021/10/16 13:14:35;;;;;;;6.90;1.87;;;;;;;;;;5049284;28;20461;-80
2021/10/16 13:17:04;;;;;;;7.00;1.67;;;;;;;;;;5047602;28;20447;-81
2021/10/16 13:19:33;;;;;;;3.97;1.47;;;;;;;;;;5050332;28;20549;-81
2021/10/16 13:22:07;;;;;;;4.90;1.47;;;;;;;;;;5078956;28;20455;-81
2021/10/16 13:24:38;;;;;;;5.57;2.20;;;;;;;;;;5061456;28;20716;-81
2021/10/16 13:27:10;;;;;;;4.23;1.73;;;;;;;;;;5066600;28;20477;-82
2021/10/16 13:29:38;;;;;;;5.17;2.20;;;;;;;;;;5066152;28;20453;-82
2021/10/16 13:32:06;;;;;;;7.60;2.30;;;;;;;;;;5065031;28;20501;-82
2021/10/16 13:34:36;;;;;;;4.57;2.67;;;;;;;;;;5064448;28;20540;-82
2021/10/16 13:37:04;;;;;;;6.30;3.73;;;;;;;;;;5065633;28;20473;-82
2021/10/16 13:39:33;;;;;;;4.60;2.83;;;;;;;;;;5065048;28;21082;-80
2021/10/16 13:42:01;;;;;;;10.70;5.97;;;;;;;;;;5064203;28;20449;-80
2021/10/16 13:44:34;;;;;;;5.67;2.00;;;;;;;;;;5061518;28;20473;-80
2021/10/16 13:47:02;;;;;;;6.43;2.17;;;;;;;;;;5067052;28;20464;-80
2021/10/16 13:49:30;;;;;;;8.03;4.50;;;;;;;;;;5067573;28;20452;-80
2021/10/16 13:52:19;;;;;;;4.50;1.80;;;;;;;;;;5068957;28;20445;-79
2021/10/16 13:54:48;;;;;;;7.50;4.27;;;;;;;;;;5067916;28;20469;-83
2021/10/16 13:57:15;;;;;;;6.83;3.03;;;;;;;;;;5068519;28;20441;-80
2021/10/16 13:59:49;;;;;;;9.23;2.77;;;;;;;;;;5067320;28;20519;-82
2021/10/16 14:02:16;;;;;;;9.00;6.07;;;;;;;;;;5062626;28;20530;-80
2021/10/16 14:04:49;;;;;;;10.50;4.90;;;;;;;;;;5043157;28;20746;-80
2021/10/16 14:07:24;;;;;;;5.63;3.40;;;;;;;;;;5049565;28;20458;-79
2021/10/16 14:13:15;;;;;;;8.50;5.57;;;;;;;;;;5053329;28;20471;-80
2021/10/16 14:15:54;;;;;;;11.67;5.27;;;;;;;;;;5048709;28;20463;-81
2021/10/16 14:18:22;;;;;;;6.33;4.83;;;;;;;;;;5047354;28;20476;-79
2021/10/16 14:20:50;;;;;;;6.90;4.67;;;;;;;;;;5066835;28;20719;-80
2021/10/16 14:23:21;;;;;;;2.97;2.10;;;;;;;;;;5057422;28;20455;-80
2021/10/16 14:25:52;;;;;;;5.80;3.10;;;;;;;;;;5055599;28;20515;-80
2021/10/16 14:28:22;;;;;;;9.13;5.10;;;;;;;;;;5065788;28;20445;-82
2021/10/16 14:30:50;;;;;;;11.70;4.83;;;;;;;;;;5065673;28;20446;-78
2021/10/16 14:33:22;;;;;;;11.70;5.40;;;;;;;;;;5061663;28;20477;-78
2021/10/16 14:35:50;;;;;;;7.57;4.27;;;;;;;;;;5057634;28;20442;-81
2021/10/16 14:38:18;;;;;;;6.43;3.20;;;;;;;;;;5059361;28;20729;-79
2021/10/16 14:40:46;;;;;;;9.70;4.50;;;;;;;;;;5052404;28;20477;-81
2021/10/16 14:43:15;;;;;;;12.53;7.17;;;;;;;;;;5074855;28;20463;-80
2021/10/16 14:45:44;;;;;;;8.90;6.97;;;;;;;;;;5055721;28;20449;-79
2021/10/16 14:48:12;;;;;;;8.00;5.83;;;;;;;;;;5066120;28;20475;-83
2021/10/16 14:50:41;;;;;;;17.63;13.50;;;;;;;;;;5048629;28;20462;-80
2021/10/16 14:53:10;;;;;;;14.40;12.77;;;;;;;;;;5056637;28;20476;-80
2021/10/16 14:55:38;;;;;;;8.57;7.67;;;;;;;;;;5067327;28;20449;-79
2021/10/16 14:58:06;;;;;;;6.93;5.43;;;;;;;;;;5063313;28;20457;-81
2021/10/16 15:00:34;;;;;;;9.80;8.70;;;;;;;;;;5067522;28;20497;-81